createdAt,value
2022-09-21T00:01:40.577Z,7.70
2022-09-21T00:04:10.744Z,7.60
2022-09-21T00:06:39.511Z,7.50
2022-09-21T00:09:09.457Z,7.40
2022-09-21T00:11:38.763Z,7.30
2022-09-21T00:42:32.167Z,7.10
2022-09-21T00:45:01.263Z,7.40
2022-09-21T00:47:34.223Z,7.40
2022-09-21T00:50:07.668Z,7.30
2022-09-21T00:52:41.743Z,7.30
2022-09-21T00:55:13.615Z,7.20
2022-09-21T00:57:45.165Z,7.10
2022-09-21T01:00:14.789Z,7.20
2022-09-21T01:02:43.654Z,7.20
2022-09-21T01:05:12.408Z,7.20
2022-09-21T01:07:44.637Z,7.10
2022-09-21T01:10:15.027Z,6.90
2022-09-21T01:13:00.055Z,7.10
2022-09-21T01:15:37.024Z,7.10
2022-09-21T01:18:13.164Z,7.10
2022-09-21T01:21:21.325Z,7.00
2022-09-21T01:24:20.023Z,6.80
2022-09-21T01:27:44.157Z,6.60
2022-09-21T01:30:17.192Z,6.50
2022-09-21T01:32:51.450Z,6.70
2022-09-21T01:35:24.052Z,6.50
2022-09-21T01:37:58.510Z,6.50
2022-09-21T01:40:35.690Z,6.50
2022-09-21T01:43:08.175Z,6.50
2022-09-21T01:45:41.947Z,6.50
2022-09-21T01:48:11.267Z,6.50
2022-09-21T01:50:44.984Z,6.50
2022-09-21T01:53:19.540Z,6.40
2022-09-21T01:55:51.646Z,6.50
2022-09-21T01:58:25.743Z,6.50
2022-09-21T02:00:59.377Z,6.50
2022-09-21T02:03:34.365Z,6.50
2022-09-21T02:06:04.052Z,6.50
2022-09-21T02:08:33.240Z,6.50
2022-09-21T02:11:04.303Z,6.50
2022-09-21T02:13:35.483Z,6.50
2022-09-21T02:16:25.432Z,6.50
2022-09-21T02:19:02.629Z,6.60
2022-09-21T02:21:34.361Z,6.50
2022-09-21T02:24:09.651Z,6.50
2022-09-21T02:26:46.556Z,6.50
2022-09-21T02:29:21.362Z,6.50
2022-09-21T02:31:56.015Z,6.50
2022-09-21T02:34:33.379Z,6.50
2022-09-21T02:37:06.973Z,6.60
2022-09-21T02:39:39.841Z,6.40
2022-09-21T02:42:12.614Z,6.30
2022-09-21T02:44:43.853Z,6.30
2022-09-21T02:47:19.908Z,6.40
2022-09-21T02:49:51.941Z,6.40
2022-09-21T02:52:22.565Z,6.40
2022-09-21T02:54:53.194Z,6.40
2022-09-21T02:57:23.933Z,6.40
2022-09-21T02:59:53.460Z,6.50
2022-09-21T03:02:22.985Z,6.50
2022-09-21T03:04:51.544Z,6.40
2022-09-21T03:07:19.769Z,6.50
2022-09-21T03:09:48.022Z,6.60
2022-09-21T03:12:16.251Z,6.70
2022-09-21T03:14:44.686Z,6.70
2022-09-21T03:17:12.923Z,6.70
2022-09-21T03:19:43.135Z,6.80
2022-09-21T03:22:11.552Z,6.90
2022-09-21T03:24:48.696Z,7.00
2022-09-21T03:27:19.845Z,7.00
2022-09-21T03:29:48.395Z,7.10
2022-09-21T03:32:17.213Z,7.10
2022-09-21T03:34:46.843Z,7.10
2022-09-21T03:37:15.090Z,7.00
2022-09-21T03:39:43.451Z,7.10
2022-09-21T03:42:14.051Z,7.40
2022-09-21T03:44:42.413Z,7.40
2022-09-21T03:47:10.810Z,7.30
2022-09-21T03:49:41.382Z,7.20
2022-09-21T03:52:10.967Z,7.30
2022-09-21T03:54:39.206Z,7.20
2022-09-21T03:57:08.596Z,7.10
2022-09-21T03:59:36.816Z,7.00
2022-09-21T04:02:05.176Z,7.00
2022-09-21T04:04:33.487Z,7.00
2022-09-21T04:07:01.747Z,6.80
2022-09-21T04:09:31.755Z,6.70
2022-09-21T04:12:00.151Z,6.70
2022-09-21T04:14:29.150Z,6.70
2022-09-21T04:16:58.131Z,6.50
2022-09-21T04:19:26.466Z,6.60
2022-09-21T04:21:56.073Z,6.70
2022-09-21T04:24:24.508Z,7.00
2022-09-21T04:26:54.088Z,6.90
2022-09-21T04:29:22.337Z,6.80
2022-09-21T04:31:50.527Z,6.90
2022-09-21T04:34:18.733Z,6.80
2022-09-21T04:36:47.261Z,6.80
2022-09-21T04:39:15.526Z,6.80
2022-09-21T04:41:43.784Z,6.70
2022-09-21T04:44:13.350Z,6.70
2022-09-21T04:46:42.480Z,6.80
2022-09-21T04:49:10.799Z,6.70
2022-09-21T04:51:39.137Z,6.70
2022-09-21T04:54:07.833Z,6.60
2022-09-21T04:56:36.029Z,6.60
2022-09-21T04:59:04.526Z,6.50
2022-09-21T05:01:34.294Z,6.50
2022-09-21T05:04:03.115Z,6.50
2022-09-21T05:06:31.639Z,6.50
2022-09-21T05:09:17.990Z,6.40
2022-09-21T05:11:46.578Z,6.40
2022-09-21T05:14:14.992Z,6.30
2022-09-21T05:16:44.692Z,6.30
2022-09-21T05:19:12.942Z,6.30
2022-09-21T05:21:41.115Z,6.40
2022-09-21T05:24:09.829Z,6.40
2022-09-21T05:26:38.291Z,6.50
2022-09-21T05:29:07.080Z,6.50
2022-09-21T05:31:43.649Z,6.40
2022-09-21T05:34:25.950Z,6.50
2022-09-21T05:37:02.011Z,6.60
2022-09-21T05:39:30.706Z,6.70
2022-09-21T05:41:59.283Z,6.70
2022-09-21T05:44:27.953Z,6.70
2022-09-21T05:47:01.008Z,6.60
2022-09-21T05:49:45.864Z,6.50
2022-09-21T05:52:20.024Z,6.50
2022-09-21T05:55:01.354Z,6.50
2022-09-21T05:57:38.482Z,6.50
2022-09-21T06:00:15.221Z,6.50
2022-09-21T06:03:00.032Z,6.70
2022-09-21T06:05:30.139Z,6.70
2022-09-21T06:07:58.516Z,6.90
2022-09-21T06:10:36.039Z,7.10
2022-09-21T06:13:04.297Z,7.30
2022-09-21T06:15:35.180Z,7.40
2022-09-21T06:18:03.421Z,7.40
2022-09-21T06:20:33.026Z,7.40
2022-09-21T06:23:04.279Z,7.60
2022-09-21T06:25:32.571Z,7.60
2022-09-21T06:28:04.453Z,7.60
2022-09-21T06:30:34.677Z,7.70
2022-09-21T06:33:03.522Z,7.80
2022-09-21T06:35:34.833Z,7.90
2022-09-21T06:38:04.719Z,8.10
2022-09-21T06:40:35.397Z,8.30
2022-09-21T06:43:05.733Z,8.60
2022-09-21T06:45:34.443Z,8.80
2022-09-21T06:48:03.107Z,9.00
2022-09-21T06:50:32.636Z,9.30
2022-09-21T06:53:01.288Z,9.60
2022-09-21T06:55:30.042Z,9.90
2022-09-21T06:58:02.937Z,10.30
2022-09-21T07:00:31.682Z,10.70
2022-09-21T07:02:59.966Z,11.10
2022-09-21T07:05:28.486Z,11.40
2022-09-21T07:08:00.439Z,11.70
2022-09-21T07:10:28.765Z,12.00
2022-09-21T07:12:57.151Z,12.20
2022-09-21T07:15:29.997Z,12.40
2022-09-21T07:18:05.945Z,12.60
2022-09-21T07:20:34.371Z,12.90
2022-09-21T07:23:11.568Z,13.20
2022-09-21T07:25:40.058Z,13.60
2022-09-21T07:28:08.386Z,13.70
2022-09-21T07:30:37.540Z,14.00
2022-09-21T07:33:06.423Z,14.00
2022-09-21T07:35:35.745Z,14.20
2022-09-21T07:38:09.102Z,14.20
2022-09-21T07:40:37.415Z,14.30
2022-09-21T07:43:06.560Z,14.20
2022-09-21T07:45:34.980Z,14.40
2022-09-21T07:48:06.741Z,14.50
2022-09-21T07:50:35.266Z,14.70
2022-09-21T07:53:05.536Z,14.70
2022-09-21T07:55:35.192Z,15.10
2022-09-21T07:58:21.001Z,15.40
2022-09-21T08:00:49.432Z,15.50
2022-09-21T08:03:17.669Z,15.60
2022-09-21T08:05:45.948Z,15.40
2022-09-21T08:08:15.572Z,15.50
2022-09-21T08:10:45.227Z,15.70
2022-09-21T08:13:13.466Z,16.10
2022-09-21T08:15:49.755Z,16.30
2022-09-21T08:18:18.806Z,16.40
2022-09-21T08:20:55.753Z,16.70
2022-09-21T08:23:24.345Z,16.90
2022-09-21T08:25:54.221Z,16.60
2022-09-21T08:28:22.446Z,16.60
2022-09-21T08:30:50.686Z,16.70
2022-09-21T08:33:19.120Z,16.80
2022-09-21T08:35:53.750Z,16.70
2022-09-21T08:38:22.385Z,16.90
2022-09-21T08:40:52.327Z,16.80
2022-09-21T08:43:31.471Z,17.00
2022-09-21T08:46:01.857Z,17.00
2022-09-21T08:48:40.188Z,16.80
2022-09-21T08:51:12.086Z,16.80
2022-09-21T08:53:42.458Z,16.60
2022-09-21T08:56:12.088Z,16.60
2022-09-21T08:58:42.175Z,16.40
2022-09-21T09:01:30.726Z,16.70
2022-09-21T09:04:19.600Z,16.90
2022-09-21T09:06:53.630Z,17.30
2022-09-21T09:09:37.532Z,17.30
2022-09-21T09:12:21.663Z,17.20
2022-09-21T09:15:24.425Z,17.70
2022-09-21T09:18:00.866Z,17.90
2022-09-21T09:20:33.749Z,18.10
2022-09-21T09:23:10.784Z,18.10
2022-09-21T09:25:42.862Z,18.20
2022-09-21T09:28:30.226Z,18.20
2022-09-21T09:31:03.580Z,18.00
2022-09-21T09:33:45.045Z,18.00
2022-09-21T09:36:14.483Z,18.20
2022-09-21T09:38:49.144Z,18.20
2022-09-21T09:41:50.679Z,18.10
2022-09-21T09:44:50.178Z,17.80
2022-09-21T09:47:30.679Z,17.60
2022-09-21T09:50:06.479Z,18.00
2022-09-21T09:52:35.205Z,18.10
2022-09-21T09:55:16.815Z,18.30
2022-09-21T09:57:45.338Z,18.40
2022-09-21T10:00:16.460Z,18.30
2022-09-21T10:02:51.164Z,18.70
2022-09-21T10:05:25.023Z,18.50
2022-09-21T10:07:54.353Z,18.40
2022-09-21T10:10:33.481Z,18.70
2022-09-21T10:13:12.555Z,18.60
2022-09-21T10:15:49.968Z,18.40
2022-09-21T10:18:26.539Z,18.50
2022-09-21T10:21:01.350Z,18.50
2022-09-21T10:23:31.533Z,19.00
2022-09-21T10:26:03.286Z,19.30
2022-09-21T10:28:32.226Z,19.00
2022-09-21T10:31:23.791Z,19.10
2022-09-21T10:33:56.358Z,19.00
2022-09-21T10:36:36.739Z,19.20
2022-09-21T10:39:20.139Z,19.40
2022-09-21T10:41:53.892Z,19.50
2022-09-21T10:44:26.788Z,19.80
2022-09-21T10:49:28.380Z,20.20
2022-09-21T10:51:59.343Z,19.90
2022-09-21T10:54:30.494Z,20.00
2022-09-21T10:57:02.682Z,20.40
2022-09-21T10:59:32.796Z,20.90
2022-09-21T11:02:03.167Z,20.70
2022-09-21T11:04:42.777Z,20.60
2022-09-21T11:07:17.525Z,20.30
2022-09-21T11:09:54.505Z,20.30
2022-09-21T11:12:37.115Z,20.10
2022-09-21T11:15:17.311Z,20.80
2022-09-21T11:17:50.855Z,21.00
2022-09-21T11:20:32.417Z,20.90
2022-09-21T11:23:06.494Z,20.80
2022-09-21T11:25:42.324Z,20.20
2022-09-21T11:28:20.631Z,19.00
2022-09-21T11:31:26.712Z,18.70
2022-09-21T11:34:22.185Z,18.60
2022-09-21T11:37:01.961Z,18.40
2022-09-21T11:39:39.390Z,18.70
2022-09-21T11:42:20.444Z,19.40
2022-09-21T11:44:55.932Z,19.90
2022-09-21T11:47:47.996Z,20.20
2022-09-21T11:50:33.969Z,20.30
2022-09-21T11:53:16.311Z,20.90
2022-09-21T11:56:01.960Z,21.20
2022-09-21T11:58:39.770Z,20.80
2022-09-21T12:01:27.455Z,20.10
2022-09-21T12:04:09.252Z,20.30
2022-09-21T12:06:51.036Z,20.30
2022-09-21T12:09:37.321Z,20.00
2022-09-21T12:12:11.187Z,19.90
2022-09-21T12:14:47.963Z,19.90
2022-09-21T12:17:25.509Z,20.30
2022-09-21T12:20:03.012Z,20.00
2022-09-21T12:22:34.696Z,20.10
2022-09-21T12:25:14.729Z,19.50
2022-09-21T12:27:47.536Z,20.20
2022-09-21T12:30:18.780Z,20.50
2022-09-21T12:32:55.716Z,20.80
2022-09-21T12:35:33.667Z,21.40
2022-09-21T12:38:10.507Z,21.50
2022-09-21T12:40:47.636Z,20.90
2022-09-21T12:43:27.597Z,20.30
2022-09-21T12:46:02.990Z,20.00
2022-09-21T12:48:39.038Z,20.70
2022-09-21T12:51:15.605Z,20.60
2022-09-21T12:53:50.870Z,21.20
2022-09-21T12:56:33.396Z,21.30
2022-09-21T12:59:19.332Z,21.00
2022-09-21T13:01:57.190Z,20.70
2022-09-21T13:05:02.368Z,21.30
2022-09-21T13:07:45.351Z,20.90
2022-09-21T13:10:22.125Z,21.00
2022-09-21T13:12:56.399Z,20.60
2022-09-21T13:15:28.822Z,20.70
2022-09-21T13:18:02.318Z,21.60
2022-09-21T13:20:37.851Z,22.30
2022-09-21T13:23:06.763Z,22.10
2022-09-21T13:25:37.892Z,22.20
2022-09-21T13:28:24.035Z,22.30
2022-09-21T13:31:47.442Z,22.70
2022-09-21T13:34:24.825Z,22.00
2022-09-21T13:37:16.890Z,21.00
2022-09-21T13:39:46.088Z,20.10
2022-09-21T13:42:48.271Z,20.50
2022-09-21T13:45:53.145Z,21.30
2022-09-21T13:48:27.257Z,21.70
2022-09-21T13:50:59.631Z,21.80
2022-09-21T13:53:35.539Z,22.40
2022-09-21T13:56:09.914Z,23.00
2022-09-21T13:58:44.649Z,22.90
2022-09-21T14:01:45.033Z,23.00
2022-09-21T14:04:21.466Z,22.70
2022-09-21T14:06:52.352Z,22.20
2022-09-21T14:09:25.703Z,21.90
2022-09-21T14:11:59.884Z,21.10
2022-09-21T14:14:32.861Z,21.20
2022-09-21T14:17:03.776Z,21.40
2022-09-21T14:20:07.564Z,20.80
2022-09-21T14:22:38.895Z,19.80
2022-09-21T14:25:32.419Z,19.90
2022-09-21T14:28:11.984Z,19.90
2022-09-21T14:30:42.808Z,19.50
2022-09-21T14:33:23.660Z,19.10
2022-09-21T14:35:53.103Z,19.70
2022-09-21T14:38:25.271Z,20.70
2022-09-21T14:40:57.201Z,21.10
2022-09-21T14:43:29.755Z,21.30
2022-09-21T14:46:32.259Z,21.20
2022-09-21T14:49:15.089Z,21.20
2022-09-21T14:52:04.326Z,21.20
2022-09-21T14:54:49.446Z,21.20
2022-09-21T14:57:37.324Z,21.60
2022-09-21T15:00:21.132Z,21.70
2022-09-21T15:02:57.488Z,21.70
2022-09-21T15:05:34.277Z,21.50
2022-09-21T15:08:42.352Z,21.60
2022-09-21T15:11:17.745Z,21.60
2022-09-21T15:14:15.699Z,21.40
2022-09-21T15:16:47.255Z,21.20
2022-09-21T15:19:27.109Z,21.10
2022-09-21T15:21:58.282Z,21.00
2022-09-21T15:24:29.583Z,20.90
2022-09-21T15:27:06.945Z,20.90
2022-09-21T15:29:35.793Z,20.30
2022-09-21T15:32:04.760Z,19.70
2022-09-21T15:34:33.143Z,19.20
2022-09-21T15:37:13.520Z,18.70
2022-09-21T15:39:41.847Z,18.40
2022-09-21T15:42:23.143Z,18.10
2022-09-21T15:44:55.387Z,18.10
2022-09-21T15:47:26.042Z,18.10
2022-09-21T15:49:56.964Z,18.10
2022-09-21T15:52:33.027Z,17.90
2022-09-21T15:55:09.356Z,17.80
2022-09-21T15:57:40.655Z,17.70
2022-09-21T16:00:20.028Z,17.70
2022-09-21T16:03:07.482Z,17.60
2022-09-21T16:05:45.674Z,17.40
2022-09-21T16:08:30.348Z,17.40
2022-09-21T16:11:17.339Z,17.20
2022-09-21T16:14:04.581Z,17.10
2022-09-21T16:16:33.408Z,16.90
2022-09-21T16:19:01.709Z,16.80
2022-09-21T16:21:33.841Z,16.60
2022-09-21T16:24:17.960Z,16.50
2022-09-21T16:26:57.770Z,16.30
2022-09-21T16:29:27.741Z,16.20
2022-09-21T16:32:23.431Z,16.00
2022-09-21T16:34:53.199Z,15.90
2022-09-21T16:37:29.356Z,15.80
2022-09-21T16:40:00.683Z,15.70
2022-09-21T16:42:32.876Z,15.70
2022-09-21T16:45:01.999Z,15.60
2022-09-21T16:47:30.600Z,15.50
2022-09-21T16:50:01.853Z,15.50
2022-09-21T16:52:31.572Z,15.40
2022-09-21T16:55:01.229Z,15.30
2022-09-21T16:57:29.531Z,15.30
2022-09-21T16:59:58.113Z,15.30
2022-09-21T17:02:26.545Z,15.30
2022-09-21T17:04:54.822Z,15.20
2022-09-21T17:07:23.006Z,15.10
2022-09-21T17:09:51.237Z,15.00
2022-09-21T17:12:22.172Z,14.90
2022-09-21T17:14:51.726Z,14.80
2022-09-21T17:17:23.626Z,14.70
2022-09-21T17:19:54.292Z,14.60
2022-09-21T17:22:23.187Z,14.40
2022-09-21T17:24:54.001Z,14.30
2022-09-21T17:27:26.709Z,14.20
2022-09-21T17:29:56.484Z,14.00
2022-09-21T17:32:25.634Z,13.90
2022-09-21T17:34:58.881Z,13.80
2022-09-21T17:37:27.315Z,13.70
2022-09-21T17:39:55.651Z,13.50
2022-09-21T17:42:26.202Z,13.40
2022-09-21T17:45:12.468Z,13.30
2022-09-21T17:47:41.811Z,13.10
2022-09-21T17:50:23.069Z,13.10
2022-09-21T17:53:09.672Z,13.00
2022-09-21T17:55:39.158Z,12.90
2022-09-21T17:58:25.158Z,12.80
2022-09-21T18:01:01.374Z,12.60
2022-09-21T18:03:31.276Z,12.50
2022-09-21T18:06:00.836Z,12.40
2022-09-21T18:08:30.622Z,12.20
2022-09-21T18:11:07.563Z,12.00
2022-09-21T18:13:49.136Z,11.70
2022-09-21T18:16:30.882Z,11.50
2022-09-21T18:19:07.495Z,11.30
2022-09-21T18:21:41.826Z,11.10
2022-09-21T18:24:20.291Z,11.00
2022-09-21T18:26:50.861Z,10.90
2022-09-21T18:29:39.351Z,10.70
2022-09-21T18:32:28.468Z,10.60
2022-09-21T18:35:29.130Z,10.60
2022-09-21T18:38:10.084Z,10.50
2022-09-21T18:40:46.878Z,10.40
2022-09-21T18:43:28.092Z,10.40
2022-09-21T18:46:02.826Z,10.30
2022-09-21T18:48:52.602Z,10.20
2022-09-21T18:51:28.657Z,10.10
2022-09-21T18:53:58.561Z,10.10
2022-09-21T18:56:29.282Z,10.00
2022-09-21T18:58:58.310Z,10.00
2022-09-21T19:01:33.051Z,10.00
2022-09-21T19:04:02.273Z,9.90
2022-09-21T19:06:42.610Z,9.80
2022-09-21T19:09:21.226Z,9.80
2022-09-21T19:11:57.478Z,9.90
2022-09-21T19:14:34.634Z,9.90
2022-09-21T19:17:20.799Z,9.90
2022-09-21T19:19:59.668Z,10.00
2022-09-21T19:22:39.689Z,10.00
2022-09-21T19:25:16.763Z,9.90
2022-09-21T19:27:52.923Z,9.70
2022-09-21T19:30:21.579Z,9.60
2022-09-21T19:32:53.153Z,9.60
2022-09-21T19:35:24.675Z,9.60
2022-09-21T19:37:54.332Z,9.50
2022-09-21T19:40:25.568Z,9.50
2022-09-21T19:43:14.217Z,9.40
2022-09-21T19:45:52.377Z,9.30
2022-09-21T19:48:26.827Z,9.30
2022-09-21T19:50:57.356Z,9.30
2022-09-21T19:53:43.662Z,9.30
2022-09-21T19:56:32.208Z,9.40
2022-09-21T19:59:20.553Z,9.40
2022-09-21T20:01:53.178Z,9.40
2022-09-21T20:04:28.035Z,9.30
2022-09-21T20:07:03.249Z,9.30
2022-09-21T20:09:38.234Z,9.20
2022-09-21T20:12:15.255Z,9.20
2022-09-21T20:14:49.394Z,9.10
2022-09-21T20:17:22.188Z,9.00
2022-09-21T20:19:58.046Z,9.10
2022-09-21T20:22:34.778Z,9.00
2022-09-21T20:25:08.029Z,8.90
2022-09-21T20:27:40.804Z,8.80
2022-09-21T20:30:11.881Z,8.70
2022-09-21T20:32:43.014Z,8.70
2022-09-21T20:35:17.216Z,8.60
2022-09-21T20:37:47.015Z,8.60
2022-09-21T20:40:16.395Z,8.60
2022-09-21T20:42:45.111Z,8.60
2022-09-21T20:45:14.678Z,8.60
2022-09-21T20:47:42.950Z,8.60
2022-09-21T20:50:13.705Z,8.50
2022-09-21T20:52:43.183Z,8.50
2022-09-21T20:55:14.001Z,8.40
2022-09-21T20:57:42.474Z,8.30
2022-09-21T21:00:13.230Z,8.30
2022-09-21T21:02:42.096Z,8.20
2022-09-21T21:05:11.499Z,8.20
2022-09-21T21:07:42.531Z,8.20
2022-09-21T21:10:14.584Z,8.10
2022-09-21T21:12:43.613Z,8.10
2022-09-21T21:15:13.340Z,8.10
2022-09-21T21:17:42.811Z,8.10
2022-09-21T21:20:11.696Z,8.10
2022-09-21T21:22:42.228Z,8.10
2022-09-21T21:25:11.124Z,8.10
2022-09-21T21:27:39.370Z,8.00
2022-09-21T21:30:09.454Z,8.00
2022-09-21T21:32:38.319Z,8.10
2022-09-21T21:35:08.031Z,8.10
2022-09-21T21:37:36.229Z,8.00
2022-09-21T21:40:06.946Z,8.00
2022-09-21T21:42:35.215Z,8.00
2022-09-21T21:45:03.411Z,7.90
2022-09-21T21:47:40.509Z,7.90
2022-09-21T21:50:11.375Z,7.90
2022-09-21T21:52:40.740Z,7.90
2022-09-21T21:55:11.027Z,8.20
2022-09-21T21:57:39.236Z,8.20
2022-09-21T22:00:10.148Z,8.10
2022-09-21T22:02:38.505Z,8.00
2022-09-21T22:05:07.701Z,8.00
2022-09-21T22:07:35.926Z,7.90
2022-09-21T22:10:04.337Z,8.00
2022-09-21T22:12:34.530Z,7.90
2022-09-21T22:15:03.782Z,7.90
2022-09-21T22:17:32.268Z,7.80
2022-09-21T22:20:00.459Z,7.80
2022-09-21T22:22:28.682Z,7.80
2022-09-21T22:24:56.904Z,7.80
2022-09-21T22:27:25.719Z,7.80
2022-09-21T22:29:55.268Z,7.80
2022-09-21T22:32:23.477Z,7.70
2022-09-21T22:34:51.690Z,7.80
2022-09-21T22:37:21.067Z,7.80
2022-09-21T22:39:49.300Z,7.80
2022-09-21T22:42:17.548Z,7.80
2022-09-21T22:44:45.842Z,7.80
2022-09-21T22:47:15.461Z,7.70
2022-09-21T22:49:43.678Z,7.70
2022-09-21T22:52:11.936Z,7.80
2022-09-21T22:54:40.166Z,7.70
2022-09-21T22:57:08.445Z,7.70
2022-09-21T22:59:36.697Z,7.70
2022-09-21T23:02:08.510Z,7.70
2022-09-21T23:04:38.158Z,7.60
2022-09-21T23:07:06.432Z,7.60
2022-09-21T23:09:34.655Z,7.50
2022-09-21T23:12:03.221Z,7.40
2022-09-21T23:14:31.458Z,7.50
2022-09-21T23:16:59.720Z,7.50
2022-09-21T23:19:27.959Z,7.40
2022-09-21T23:21:57.660Z,7.40
2022-09-21T23:24:25.882Z,7.40
2022-09-21T23:26:54.295Z,7.40
2022-09-21T23:29:22.548Z,7.40
2022-09-21T23:31:51.107Z,7.40
2022-09-21T23:34:19.462Z,7.40
2022-09-21T23:36:47.749Z,7.40
2022-09-21T23:39:17.452Z,7.40
2022-09-21T23:44:14.821Z,7.30
2022-09-21T23:46:43.210Z,7.20
2022-09-21T23:49:11.918Z,7.20
2022-09-21T23:51:40.874Z,7.20
2022-09-21T23:54:09.308Z,7.20
2022-09-21T23:56:39.014Z,7.20
2022-09-21T23:59:07.197Z,7.10
